Time;durP1;ratioP1;P1;durP2;ratioP2;P2;SDS_P1;SDS_P2;PMS_P1;PMS_P2;Temp;Humidity;BMP_temperature;BMP_pressure;BME280_temperature;BME280_humidity;BME280_pressure;Samples;Min_cycle;Max_cycle;Signal;HPM_P1;HPM_P2
2023/06/11 00:00:56;;;;;;;19.50;9.63;;;;;;;;;;5034949;28;20032;-76
2023/06/11 00:03:21;;;;;;;20.65;9.80;;;;;;;;;;5017580;28;20017;-77
2023/06/11 00:05:48;;;;;;;19.20;10.50;;;;;;;;;;5035105;28;20028;-76
2023/06/11 00:08:13;;;;;;;15.00;9.10;;;;;;;;;;5017490;28;20125;-76
2023/06/11 00:10:39;;;;;;;14.63;9.30;;;;;;;;;;5034041;28;20071;-76
2023/06/11 00:13:05;;;;;;;14.20;9.43;;;;;;;;;;5034814;28;20120;-76
2023/06/11 00:15:30;;;;;;;15.65;9.35;;;;;;;;;;5034715;28;20041;-76
2023/06/11 00:17:56;;;;;;;15.13;9.43;;;;;;;;;;5017177;28;20034;-76
2023/06/11 00:20:22;;;;;;;16.40;9.65;;;;;;;;;;5033909;28;20048;-76
2023/06/11 00:22:48;;;;;;;20.05;9.32;;;;;;;;;;5034785;28;20094;-76
2023/06/11 00:25:13;;;;;;;18.35;9.52;;;;;;;;;;5034703;28;20112;-76
2023/06/11 00:27:39;;;;;;;22.35;9.75;;;;;;;;;;5034655;28;20457;-76
2023/06/11 00:30:06;;;;;;;15.18;9.63;;;;;;;;;;5016750;28;20025;-77
2023/06/11 00:32:32;;;;;;;17.40;9.90;;;;;;;;;;5034505;28;20025;-76
2023/06/11 00:34:57;;;;;;;17.60;9.20;;;;;;;;;;5033748;28;20029;-77
2023/06/11 00:37:23;;;;;;;19.20;9.60;;;;;;;;;;5034524;28;20037;-76
2023/06/11 00:39:48;;;;;;;17.63;9.32;;;;;;;;;;5034955;28;20133;-76
2023/06/11 00:42:14;;;;;;;19.83;9.18;;;;;;;;;;5034100;28;20021;-76
2023/06/11 00:44:40;;;;;;;17.10;9.43;;;;;;;;;;5016693;28;20032;-76
2023/06/11 00:47:06;;;;;;;15.82;9.90;;;;;;;;;;5031996;28;20030;-76
2023/06/11 00:49:32;;;;;;;16.52;9.57;;;;;;;;;;5049536;28;20501;-77
2023/06/11 00:51:57;;;;;;;24.70;10.00;;;;;;;;;;4999621;28;20112;-76
2023/06/11 00:54:23;;;;;;;22.83;9.85;;;;;;;;;;5050060;28;20025;-76
2023/06/11 00:56:51;;;;;;;18.80;9.63;;;;;;;;;;5016587;28;20068;-77
2023/06/11 00:59:19;;;;;;;17.35;9.77;;;;;;;;;;5016989;28;20033;-78
2023/06/11 01:02:17;;;;;;;20.10;10.63;;;;;;;;;;5033186;28;20040;-76
2023/06/11 01:04:42;;;;;;;17.15;10.27;;;;;;;;;;5034002;28;20443;-76
2023/06/11 01:07:07;;;;;;;19.13;11.18;;;;;;;;;;5016339;28;20079;-76
2023/06/11 01:09:33;;;;;;;19.05;10.38;;;;;;;;;;5016331;28;20083;-76
2023/06/11 01:12:02;;;;;;;19.45;10.98;;;;;;;;;;5048991;28;20042;-76
2023/06/11 01:14:27;;;;;;;18.77;11.38;;;;;;;;;;5016413;28;20067;-76
2023/06/11 01:17:06;;;;;;;16.80;10.77;;;;;;;;;;5016206;28;20108;-76
2023/06/11 01:19:41;;;;;;;20.48;10.65;;;;;;;;;;5033846;28;20033;-77
2023/06/11 01:22:18;;;;;;;20.25;10.50;;;;;;;;;;5033289;28;20033;-76
2023/06/11 01:25:22;;;;;;;18.67;10.52;;;;;;;;;;5016217;28;20029;-76
2023/06/11 01:28:10;;;;;;;20.67;11.75;;;;;;;;;;5031323;28;20042;-77
2023/06/11 01:30:45;;;;;;;21.08;11.30;;;;;;;;;;5033739;28;20026;-76
2023/06/11 01:33:10;;;;;;;18.88;10.95;;;;;;;;;;5032889;28;20017;-77
2023/06/11 01:35:36;;;;;;;23.25;11.93;;;;;;;;;;5032650;28;20103;-77
2023/06/11 01:38:02;;;;;;;21.50;11.98;;;;;;;;;;5016133;28;20036;-78
2023/06/11 01:40:27;;;;;;;16.75;11.45;;;;;;;;;;5000022;28;20029;-76
2023/06/11 01:42:53;;;;;;;20.58;11.77;;;;;;;;;;5016051;28;20084;-76
2023/06/11 01:45:19;;;;;;;21.15;11.98;;;;;;;;;;5016098;28;20533;-77
2023/06/11 01:47:45;;;;;;;18.10;11.77;;;;;;;;;;5013546;28;20166;-76
2023/06/11 01:50:14;;;;;;;24.50;12.10;;;;;;;;;;5016153;28;20132;-77
2023/06/11 01:52:40;;;;;;;20.02;12.15;;;;;;;;;;5048827;28;20021;-77
2023/06/11 01:55:08;;;;;;;20.00;12.30;;;;;;;;;;5015629;28;20116;-77
2023/06/11 01:57:34;;;;;;;21.20;11.82;;;;;;;;;;5033622;28;20371;-77
2023/06/11 02:00:00;;;;;;;20.70;12.30;;;;;;;;;;5015842;28;20038;-76
2023/06/11 02:02:27;;;;;;;24.08;12.23;;;;;;;;;;5033347;28;20510;-77
2023/06/11 02:04:52;;;;;;;22.02;11.77;;;;;;;;;;5018665;28;20348;-77
2023/06/11 02:07:18;;;;;;;21.35;12.23;;;;;;;;;;5019529;28;20035;-76
2023/06/11 02:09:43;;;;;;;27.15;11.85;;;;;;;;;;5037237;28;20032;-76
2023/06/11 02:12:08;;;;;;;27.08;11.70;;;;;;;;;;5037370;28;20033;-76
2023/06/11 02:14:34;;;;;;;21.35;12.95;;;;;;;;;;5037085;28;20032;-77
2023/06/11 02:16:59;;;;;;;19.00;11.75;;;;;;;;;;5037021;28;20034;-76
2023/06/11 02:19:25;;;;;;;18.13;11.50;;;;;;;;;;5037197;28;20099;-77
2023/06/11 02:21:50;;;;;;;21.48;11.20;;;;;;;;;;5035751;28;20348;-77
2023/06/11 02:24:16;;;;;;;21.98;12.10;;;;;;;;;;5036862;28;20029;-76
2023/06/11 02:26:41;;;;;;;24.17;12.27;;;;;;;;;;5019220;28;20033;-76
2023/06/11 02:29:06;;;;;;;18.38;11.70;;;;;;;;;;5019189;28;20091;-77
2023/06/11 02:31:32;;;;;;;21.23;11.75;;;;;;;;;;5003048;28;20025;-76
2023/06/11 02:33:57;;;;;;;25.33;11.98;;;;;;;;;;5037037;28;20029;-76
2023/06/11 02:36:23;;;;;;;24.10;11.82;;;;;;;;;;5036676;28;20116;-77
2023/06/11 02:38:48;;;;;;;29.95;12.52;;;;;;;;;;5036359;28;20131;-76
2023/06/11 02:41:15;;;;;;;38.58;12.80;;;;;;;;;;5002622;28;20065;-76
2023/06/11 02:43:41;;;;;;;25.08;11.98;;;;;;;;;;5018905;28;20064;-76
2023/06/11 02:46:06;;;;;;;25.92;12.52;;;;;;;;;;5037056;28;20065;-76
2023/06/11 02:48:32;;;;;;;22.95;12.25;;;;;;;;;;5018908;28;20042;-77
2023/06/11 02:50:57;;;;;;;23.48;13.00;;;;;;;;;;5036415;28;20061;-76
2023/06/11 02:53:23;;;;;;;21.20;12.60;;;;;;;;;;5018490;28;20033;-77
2023/06/11 02:55:48;;;;;;;22.15;13.23;;;;;;;;;;5002341;28;20041;-76
2023/06/11 02:58:13;;;;;;;22.17;13.30;;;;;;;;;;5036370;28;20030;-77
2023/06/11 03:00:39;;;;;;;28.00;14.13;;;;;;;;;;5002278;28;20454;-77
2023/06/11 03:03:04;;;;;;;26.63;14.25;;;;;;;;;;5018532;28;20037;-76
2023/06/11 03:05:30;;;;;;;24.58;13.90;;;;;;;;;;5035201;28;20029;-76
2023/06/11 03:07:56;;;;;;;26.88;14.27;;;;;;;;;;5035866;28;20470;-76
2023/06/11 03:10:21;;;;;;;31.65;14.15;;;;;;;;;;5018761;28;20367;-76
2023/06/11 03:12:47;;;;;;;23.55;13.48;;;;;;;;;;5018687;28;20033;-76
2023/06/11 03:15:12;;;;;;;24.38;13.93;;;;;;;;;;5034948;28;20037;-77
2023/06/11 03:17:38;;;;;;;28.05;12.93;;;;;;;;;;5022736;28;20455;-76
2023/06/11 03:20:04;;;;;;;23.35;13.57;;;;;;;;;;5035869;28;20056;-77
2023/06/11 03:22:29;;;;;;;24.23;12.32;;;;;;;;;;5036063;28;20119;-76
2023/06/11 03:24:55;;;;;;;22.25;13.27;;;;;;;;;;5034709;28;20025;-76
2023/06/11 03:27:20;;;;;;;25.80;13.18;;;;;;;;;;5051242;28;20054;-77
2023/06/11 03:29:46;;;;;;;24.60;13.43;;;;;;;;;;5035751;28;20025;-76
2023/06/11 03:32:11;;;;;;;26.33;13.23;;;;;;;;;;5034837;28;20426;-77
2023/06/11 03:34:36;;;;;;;22.52;12.50;;;;;;;;;;5035947;28;20448;-77
2023/06/11 03:37:02;;;;;;;22.50;12.77;;;;;;;;;;5035281;28;20032;-77
2023/06/11 03:39:27;;;;;;;23.85;12.45;;;;;;;;;;5035445;28;20060;-77
2023/06/11 03:41:53;;;;;;;26.02;12.48;;;;;;;;;;5035568;28;20049;-76
2023/06/11 03:44:18;;;;;;;24.35;12.63;;;;;;;;;;5051128;28;20375;-76
2023/06/11 03:46:44;;;;;;;21.33;12.52;;;;;;;;;;5034279;28;20040;-77
2023/06/11 03:49:09;;;;;;;30.08;12.63;;;;;;;;;;5035184;28;20057;-77
2023/06/11 03:51:35;;;;;;;24.60;13.35;;;;;;;;;;5033844;28;20041;-77
2023/06/11 03:54:01;;;;;;;24.75;12.00;;;;;;;;;;5033953;28;20040;-77
2023/06/11 03:56:26;;;;;;;27.15;12.40;;;;;;;;;;5035249;28;20037;-76
2023/06/11 03:58:51;;;;;;;21.85;11.93;;;;;;;;;;5033999;28;20033;-76
2023/06/11 04:01:17;;;;;;;18.23;11.07;;;;;;;;;;5017630;28;20030;-76
2023/06/11 04:03:42;;;;;;;19.70;11.60;;;;;;;;;;5035097;28;20030;-76
2023/06/11 04:06:08;;;;;;;19.08;11.63;;;;;;;;;;5034805;28;20356;-77
2023/06/11 04:08:33;;;;;;;22.60;11.05;;;;;;;;;;5033989;28;20104;-76
2023/06/11 04:10:59;;;;;;;24.67;11.32;;;;;;;;;;5033816;28;20451;-76
2023/06/11 04:13:24;;;;;;;22.67;11.85;;;;;;;;;;5034995;28;20344;-77
2023/06/11 04:15:50;;;;;;;19.63;11.57;;;;;;;;;;5050288;28;20440;-77
2023/06/11 04:18:15;;;;;;;21.80;11.32;;;;;;;;;;5050253;28;20442;-77
2023/06/11 04:20:40;;;;;;;28.40;11.10;;;;;;;;;;5034853;28;20034;-77
2023/06/11 04:23:06;;;;;;;19.50;11.63;;;;;;;;;;5034730;28;20091;-77
2023/06/11 04:25:33;;;;;;;23.08;11.13;;;;;;;;;;5017132;28;20526;-77
2023/06/11 04:27:59;;;;;;;20.08;11.07;;;;;;;;;;5049627;28;20127;-78
2023/06/11 04:30:26;;;;;;;25.08;11.40;;;;;;;;;;5034811;28;20036;-77
2023/06/11 04:32:54;;;;;;;23.85;11.48;;;;;;;;;;5034651;28;20036;-76
2023/06/11 04:35:25;;;;;;;17.65;11.40;;;;;;;;;;5049480;28;20547;-77
2023/06/11 04:37:51;;;;;;;19.02;10.90;;;;;;;;;;5034479;28;20099;-78
2023/06/11 04:40:18;;;;;;;23.70;12.52;;;;;;;;;;5034660;28;20037;-77
2023/06/11 04:42:44;;;;;;;25.20;11.93;;;;;;;;;;5016882;28;20026;-77
2023/06/11 04:45:10;;;;;;;21.92;12.00;;;;;;;;;;5034653;28;20116;-77
2023/06/11 04:47:36;;;;;;;21.80;10.68;;;;;;;;;;5034202;28;20152;-77
2023/06/11 04:50:04;;;;;;;18.25;10.75;;;;;;;;;;5034014;28;20474;-77
2023/06/11 04:52:34;;;;;;;20.73;10.65;;;;;;;;;;5034613;28;20041;-77
2023/06/11 04:55:01;;;;;;;19.13;10.63;;;;;;;;;;5034466;28;20375;-77
2023/06/11 04:57:27;;;;;;;18.70;11.32;;;;;;;;;;5034140;28;20505;-77
2023/06/11 04:59:53;;;;;;;19.83;10.35;;;;;;;;;;5016454;28;20037;-76
2023/06/11 05:02:19;;;;;;;14.95;9.30;;;;;;;;;;5016671;28;20031;-77
2023/06/11 05:04:49;;;;;;;18.98;10.48;;;;;;;;;;5033769;28;20049;-77
2023/06/11 05:07:15;;;;;;;22.35;9.93;;;;;;;;;;5032176;28;20038;-77
2023/06/11 05:09:42;;;;;;;17.52;10.05;;;;;;;;;;5049313;28;20593;-77
2023/06/11 05:12:07;;;;;;;16.13;10.52;;;;;;;;;;5033956;28;20029;-76
2023/06/11 05:14:33;;;;;;;24.83;10.77;;;;;;;;;;5033827;28;20102;-77
2023/06/11 05:16:59;;;;;;;17.40;10.43;;;;;;;;;;5032904;28;20029;-77
2023/06/11 05:19:25;;;;;;;18.33;10.10;;;;;;;;;;5033455;28;20482;-77
2023/06/11 05:21:50;;;;;;;20.75;9.93;;;;;;;;;;5049459;28;20029;-77
2023/06/11 05:24:19;;;;;;;20.92;9.50;;;;;;;;;;5032621;28;20362;-77
2023/06/11 05:26:44;;;;;;;18.42;9.30;;;;;;;;;;5048887;28;20129;-77
2023/06/11 05:29:10;;;;;;;16.30;9.65;;;;;;;;;;5049403;28;20065;-77
2023/06/11 05:31:35;;;;;;;15.35;9.18;;;;;;;;;;5033667;28;20029;-78
2023/06/11 05:34:01;;;;;;;12.88;9.23;;;;;;;;;;5033712;28;20064;-78
2023/06/11 05:36:27;;;;;;;20.35;8.73;;;;;;;;;;5033688;28;20370;-76
2023/06/11 05:38:53;;;;;;;15.02;7.97;;;;;;;;;;5034855;28;20021;-78
2023/06/11 05:41:19;;;;;;;17.70;8.93;;;;;;;;;;5037815;28;20029;-77
2023/06/11 05:43:45;;;;;;;18.77;8.95;;;;;;;;;;5037797;28;20025;-77
2023/06/11 05:46:10;;;;;;;11.25;8.18;;;;;;;;;;5037726;28;20506;-78
2023/06/11 05:48:36;;;;;;;12.80;8.10;;;;;;;;;;5035996;28;20127;-78
2023/06/11 05:51:01;;;;;;;12.85;7.60;;;;;;;;;;5019813;28;20429;-78
2023/06/11 05:53:27;;;;;;;18.60;8.85;;;;;;;;;;5036658;28;20504;-78
2023/06/11 05:55:52;;;;;;;14.25;8.38;;;;;;;;;;5037540;28;20414;-78
2023/06/11 05:58:17;;;;;;;13.15;8.32;;;;;;;;;;5036410;28;20022;-78
2023/06/11 06:00:43;;;;;;;11.10;8.02;;;;;;;;;;5052859;28;20390;-78
2023/06/11 06:03:08;;;;;;;12.15;8.35;;;;;;;;;;5037473;28;20489;-77
2023/06/11 06:05:34;;;;;;;15.10;7.38;;;;;;;;;;5036610;28;20029;-78
2023/06/11 06:07:59;;;;;;;13.30;7.47;;;;;;;;;;5037324;28;20037;-78
2023/06/11 06:10:25;;;;;;;10.68;7.30;;;;;;;;;;5037297;28;20051;-78
2023/06/11 06:12:50;;;;;;;11.15;6.57;;;;;;;;;;5037589;28;20032;-78
2023/06/11 06:15:16;;;;;;;11.65;6.90;;;;;;;;;;5037180;28;20348;-79
2023/06/11 06:17:41;;;;;;;11.65;6.70;;;;;;;;;;5052387;28;20188;-76
2023/06/11 06:20:09;;;;;;;9.10;6.60;;;;;;;;;;5037098;28;20371;-77
2023/06/11 06:22:34;;;;;;;10.48;7.03;;;;;;;;;;5037455;28;20339;-79
2023/06/11 06:25:00;;;;;;;8.63;6.90;;;;;;;;;;5036144;28;20032;-78
2023/06/11 06:27:25;;;;;;;8.02;6.43;;;;;;;;;;5037519;28;20087;-78
2023/06/11 06:29:51;;;;;;;8.05;6.45;;;;;;;;;;5035849;28;20033;-80
2023/06/11 06:32:16;;;;;;;12.10;6.72;;;;;;;;;;5035428;28;20112;-79
2023/06/11 06:34:42;;;;;;;16.60;6.20;;;;;;;;;;5052510;28;20029;-78
2023/06/11 06:37:09;;;;;;;10.10;6.00;;;;;;;;;;5036186;28;20083;-76
2023/06/11 06:39:34;;;;;;;9.85;6.30;;;;;;;;;;5035559;28;20037;-76
2023/06/11 06:42:00;;;;;;;11.15;6.68;;;;;;;;;;5035826;28;20029;-76
2023/06/11 06:44:25;;;;;;;13.75;6.72;;;;;;;;;;5052471;28;20391;-77
2023/06/11 06:46:53;;;;;;;10.25;6.40;;;;;;;;;;5036512;28;20116;-77
2023/06/11 06:49:20;;;;;;;9.20;6.18;;;;;;;;;;5035463;28;20049;-76
2023/06/11 06:51:45;;;;;;;9.60;5.75;;;;;;;;;;5021559;28;20041;-77
2023/06/11 06:54:11;;;;;;;11.57;6.95;;;;;;;;;;5018620;28;20064;-77
2023/06/11 06:56:36;;;;;;;8.05;5.93;;;;;;;;;;5018922;28;20025;-78
2023/06/11 06:59:02;;;;;;;9.02;6.45;;;;;;;;;;5018672;28;20029;-77
2023/06/11 07:01:27;;;;;;;6.63;5.45;;;;;;;;;;5018349;28;20083;-77
2023/06/11 07:03:52;;;;;;;9.27;6.40;;;;;;;;;;5036334;28;20506;-77
2023/06/11 07:06:18;;;;;;;8.77;6.22;;;;;;;;;;5018660;28;20026;-77
2023/06/11 07:08:43;;;;;;;8.43;6.32;;;;;;;;;;5018624;28;20035;-77
2023/06/11 07:11:09;;;;;;;8.57;5.50;;;;;;;;;;5036441;28;20037;-77
2023/06/11 07:13:35;;;;;;;8.82;5.93;;;;;;;;;;5018529;28;20116;-76
2023/06/11 07:16:00;;;;;;;11.13;6.50;;;;;;;;;;5001974;28;20024;-77
2023/06/11 07:18:27;;;;;;;9.25;5.95;;;;;;;;;;5035994;28;20459;-77
2023/06/11 07:20:53;;;;;;;9.23;5.55;;;;;;;;;;5002296;28;20394;-77
2023/06/11 07:23:18;;;;;;;10.35;5.28;;;;;;;;;;5036255;28;20033;-77
2023/06/11 07:25:44;;;;;;;6.43;5.22;;;;;;;;;;5036177;28;20026;-77
2023/06/11 07:28:10;;;;;;;6.15;5.55;;;;;;;;;;5018245;28;20538;-78
2023/06/11 07:30:35;;;;;;;7.13;5.15;;;;;;;;;;5035526;28;20056;-77
2023/06/11 07:33:01;;;;;;;8.82;5.57;;;;;;;;;;5035085;28;20351;-77
2023/06/11 07:35:26;;;;;;;10.85;5.13;;;;;;;;;;5001772;28;20022;-77
2023/06/11 07:37:52;;;;;;;6.85;5.25;;;;;;;;;;5034440;28;20032;-77
2023/06/11 07:40:17;;;;;;;7.05;5.13;;;;;;;;;;5018445;28;20056;-77
2023/06/11 07:42:43;;;;;;;7.35;5.50;;;;;;;;;;5034103;28;20363;-78
2023/06/11 07:45:09;;;;;;;8.85;5.32;;;;;;;;;;5035686;28;20036;-77
2023/06/11 07:47:35;;;;;;;9.40;5.13;;;;;;;;;;5017737;28;20034;-78
2023/06/11 07:50:01;;;;;;;8.70;4.72;;;;;;;;;;5018228;28;20032;-78
2023/06/11 07:52:26;;;;;;;10.13;5.47;;;;;;;;;;5017955;28;20132;-78
2023/06/11 07:54:52;;;;;;;7.07;5.00;;;;;;;;;;5035680;28;20122;-79
2023/06/11 07:57:17;;;;;;;5.75;5.25;;;;;;;;;;5035123;28;20030;-77
2023/06/11 07:59:43;;;;;;;10.18;4.82;;;;;;;;;;5035214;28;20037;-80
2023/06/11 08:02:09;;;;;;;5.30;4.75;;;;;;;;;;5034725;28;20143;-78
2023/06/11 08:04:35;;;;;;;8.13;4.82;;;;;;;;;;5035173;28;20029;-78
2023/06/11 08:07:01;;;;;;;6.70;4.82;;;;;;;;;;5035375;28;20034;-77
2023/06/11 08:09:26;;;;;;;5.38;4.80;;;;;;;;;;5033780;28;20124;-78
2023/06/11 08:11:52;;;;;;;7.78;5.25;;;;;;;;;;5034769;28;20068;-78
2023/06/11 08:14:19;;;;;;;6.47;5.10;;;;;;;;;;5034928;28;20032;-78
2023/06/11 08:16:45;;;;;;;5.82;4.70;;;;;;;;;;5033768;28;20343;-77
2023/06/11 08:19:11;;;;;;;6.30;4.68;;;;;;;;;;5033735;28;20044;-80
2023/06/11 08:21:37;;;;;;;5.78;4.40;;;;;;;;;;5034822;28;20030;-81
2023/06/11 08:24:03;;;;;;;7.05;4.80;;;;;;;;;;5050544;28;20470;-87
2023/06/11 08:26:28;;;;;;;6.57;4.88;;;;;;;;;;5034712;28;20059;-82
2023/06/11 08:28:54;;;;;;;6.03;4.80;;;;;;;;;;5033630;28;20040;-80
2023/06/11 08:31:19;;;;;;;5.97;4.43;;;;;;;;;;5034601;28;20026;-81
2023/06/11 08:33:45;;;;;;;5.07;4.50;;;;;;;;;;5033713;28;20029;-80
2023/06/11 08:36:10;;;;;;;5.07;4.60;;;;;;;;;;5034850;28;20041;-82
2023/06/11 08:38:36;;;;;;;6.78;4.43;;;;;;;;;;5034335;28;20022;-80
2023/06/11 08:41:01;;;;;;;6.60;4.47;;;;;;;;;;5034161;28;20029;-80
2023/06/11 08:43:27;;;;;;;5.85;4.57;;;;;;;;;;5016837;28;20112;-79
2023/06/11 08:45:52;;;;;;;5.00;4.45;;;;;;;;;;5016608;28;20081;-80
2023/06/11 08:48:19;;;;;;;9.45;4.45;;;;;;;;;;5033839;28;20048;-79
2023/06/11 08:50:46;;;;;;;5.53;4.63;;;;;;;;;;5031755;28;20037;-80
2023/06/11 08:53:12;;;;;;;5.25;4.47;;;;;;;;;;5015237;28;20048;-78
2023/06/11 08:55:38;;;;;;;6.40;4.72;;;;;;;;;;5042551;28;20116;-79
2023/06/11 08:58:03;;;;;;;6.47;4.50;;;;;;;;;;5031246;28;20131;-79
2023/06/11 09:00:28;;;;;;;6.70;4.53;;;;;;;;;;5032654;28;20030;-80
2023/06/11 09:02:54;;;;;;;6.80;4.25;;;;;;;;;;5031549;28;20285;-81
2023/06/11 09:05:21;;;;;;;7.07;4.70;;;;;;;;;;5031089;28;20460;-80
2023/06/11 09:07:50;;;;;;;6.80;4.68;;;;;;;;;;5031535;28;20458;-79
2023/06/11 09:10:16;;;;;;;7.25;4.60;;;;;;;;;;5031604;28;20021;-80
2023/06/11 09:12:41;;;;;;;4.80;4.13;;;;;;;;;;5032011;28;20030;-80
2023/06/11 09:15:07;;;;;;;5.20;4.40;;;;;;;;;;5033562;28;20128;-81
2023/06/11 09:17:35;;;;;;;5.25;4.32;;;;;;;;;;5033939;28;20033;-81
2023/06/11 09:20:09;;;;;;;5.60;4.47;;;;;;;;;;5033758;28;20378;-80
2023/06/11 09:22:36;;;;;;;6.05;4.60;;;;;;;;;;5033826;28;20025;-80
2023/06/11 09:25:05;;;;;;;6.20;4.50;;;;;;;;;;5032486;28;20029;-81
2023/06/11 09:27:31;;;;;;;5.03;4.53;;;;;;;;;;5032686;28;20034;-80
2023/06/11 09:29:56;;;;;;;6.05;4.72;;;;;;;;;;5049112;28;20037;-81
2023/06/11 09:32:24;;;;;;;9.30;4.88;;;;;;;;;;5049181;28;20029;-80
2023/06/11 09:34:50;;;;;;;8.48;4.47;;;;;;;;;;5048995;28;20083;-80
2023/06/11 09:37:16;;;;;;;4.95;4.13;;;;;;;;;;5033196;28;20025;-81
2023/06/11 09:39:42;;;;;;;4.97;4.22;;;;;;;;;;5015782;28;20090;-79
2023/06/11 09:42:12;;;;;;;7.25;4.15;;;;;;;;;;5032473;28;20021;-80
2023/06/11 09:44:37;;;;;;;4.38;3.95;;;;;;;;;;5048996;28;20041;-81
2023/06/11 09:47:03;;;;;;;5.25;4.00;;;;;;;;;;5015876;28;20379;-80
2023/06/11 09:49:29;;;;;;;4.88;4.10;;;;;;;;;;5032253;28;20049;-80
2023/06/11 09:51:54;;;;;;;4.63;4.10;;;;;;;;;;5032461;28;20112;-81
2023/06/11 09:54:20;;;;;;;6.20;3.85;;;;;;;;;;5031915;28;20112;-81
2023/06/11 09:56:45;;;;;;;5.78;3.90;;;;;;;;;;5025899;28;20032;-81
2023/06/11 09:59:14;;;;;;;4.50;3.90;;;;;;;;;;5048738;28;20044;-81
2023/06/11 10:01:41;;;;;;;5.82;4.35;;;;;;;;;;5048536;28;20048;-79
2023/06/11 10:04:06;;;;;;;6.05;4.40;;;;;;;;;;5048506;28;20030;-81
2023/06/11 10:06:37;;;;;;;7.70;4.43;;;;;;;;;;5032411;28;20033;-80
2023/06/11 10:09:04;;;;;;;4.82;4.10;;;;;;;;;;5048245;28;20033;-80
2023/06/11 10:11:38;;;;;;;5.22;4.18;;;;;;;;;;5032104;28;20121;-79
2023/06/11 10:14:04;;;;;;;5.15;3.80;;;;;;;;;;5046302;28;20347;-79
2023/06/11 10:16:31;;;;;;;4.60;4.20;;;;;;;;;;5033250;28;20083;-80
2023/06/11 10:19:06;;;;;;;5.20;4.00;;;;;;;;;;5048225;28;20033;-79
2023/06/11 10:21:33;;;;;;;5.10;3.75;;;;;;;;;;4999572;28;20032;-79
2023/06/11 10:23:59;;;;;;;6.50;4.03;;;;;;;;;;5030977;28;20447;-80
2023/06/11 10:26:32;;;;;;;7.22;3.85;;;;;;;;;;5018547;28;20037;-80
2023/06/11 10:28:58;;;;;;;3.85;3.55;;;;;;;;;;5052070;28;20057;-80
2023/06/11 10:31:27;;;;;;;3.67;3.38;;;;;;;;;;5036778;28;20053;-81
2023/06/11 10:34:03;;;;;;;4.85;3.70;;;;;;;;;;5036805;28;20022;-81
2023/06/11 10:36:35;;;;;;;6.60;3.90;;;;;;;;;;5050965;28;20025;-80
2023/06/11 10:39:11;;;;;;;6.07;4.07;;;;;;;;;;5018708;28;20033;-79
2023/06/11 10:41:37;;;;;;;6.93;3.40;;;;;;;;;;5034921;28;20028;-79
2023/06/11 10:44:03;;;;;;;3.88;3.30;;;;;;;;;;5051863;28;20026;-80
2023/06/11 10:46:28;;;;;;;4.18;3.78;;;;;;;;;;5036501;28;20029;-79
2023/06/11 10:48:54;;;;;;;4.75;3.33;;;;;;;;;;5036325;28;20053;-80
2023/06/11 10:51:21;;;;;;;3.92;3.45;;;;;;;;;;5018577;28;20029;-80
2023/06/11 10:53:58;;;;;;;4.38;3.60;;;;;;;;;;5036371;28;20026;-80
2023/06/11 10:56:24;;;;;;;4.75;3.70;;;;;;;;;;5018862;28;20426;-80
2023/06/11 10:58:50;;;;;;;4.10;3.70;;;;;;;;;;5017425;28;20049;-79
2023/06/11 11:01:18;;;;;;;3.70;3.25;;;;;;;;;;5018969;28;20130;-81
2023/06/11 11:03:44;;;;;;;3.90;3.47;;;;;;;;;;5036249;28;20378;-79
2023/06/11 11:06:09;;;;;;;4.00;3.30;;;;;;;;;;5018219;28;20048;-80
2023/06/11 11:08:35;;;;;;;5.40;3.58;;;;;;;;;;5018640;28;20481;-79
2023/06/11 11:11:00;;;;;;;7.22;3.90;;;;;;;;;;5036058;28;20135;-80
2023/06/11 11:13:26;;;;;;;6.20;3.50;;;;;;;;;;5036039;28;20033;-81
2023/06/11 11:15:51;;;;;;;3.72;3.42;;;;;;;;;;5001920;28;20037;-80
2023/06/11 11:18:17;;;;;;;5.03;3.58;;;;;;;;;;5018154;28;20029;-81
2023/06/11 11:20:44;;;;;;;4.32;3.92;;;;;;;;;;5035586;28;20098;-81
2023/06/11 11:23:09;;;;;;;4.97;3.78;;;;;;;;;;5035727;28;20035;-80
2023/06/11 11:25:35;;;;;;;5.97;3.90;;;;;;;;;;5036051;28;20366;-80
2023/06/11 11:28:00;;;;;;;4.38;3.80;;;;;;;;;;5035654;28;20140;-81
2023/06/11 11:30:28;;;;;;;4.63;4.22;;;;;;;;;;5017938;28;20090;-79
2023/06/11 11:32:53;;;;;;;4.47;4.07;;;;;;;;;;5034600;28;20061;-79
2023/06/11 11:35:20;;;;;;;6.22;4.53;;;;;;;;;;5050559;28;20429;-80
2023/06/11 11:37:46;;;;;;;5.22;4.22;;;;;;;;;;5034740;28;20382;-80
2023/06/11 11:40:12;;;;;;;7.28;4.93;;;;;;;;;;5035332;28;20033;-80
2023/06/11 11:42:57;;;;;;;5.85;4.32;;;;;;;;;;5018285;28;20347;-80
2023/06/11 11:45:30;;;;;;;7.50;4.72;;;;;;;;;;5035612;28;20344;-78
2023/06/11 11:47:56;;;;;;;6.88;4.70;;;;;;;;;;5002084;28;20049;-80
2023/06/11 11:50:22;;;;;;;5.53;4.82;;;;;;;;;;5034923;28;20087;-80
2023/06/11 11:53:08;;;;;;;5.85;4.47;;;;;;;;;;5017851;28;20025;-78
2023/06/11 11:55:38;;;;;;;4.93;4.18;;;;;;;;;;5035102;28;20467;-80
2023/06/11 11:58:09;;;;;;;5.47;4.63;;;;;;;;;;5035015;28;20021;-80
2023/06/11 12:00:35;;;;;;;5.05;4.07;;;;;;;;;;5031759;28;20033;-79
2023/06/11 12:03:08;;;;;;;7.88;4.20;;;;;;;;;;5016998;28;20061;-79
2023/06/11 12:05:35;;;;;;;7.47;4.15;;;;;;;;;;5034593;28;20458;-80
2023/06/11 12:08:00;;;;;;;7.90;4.22;;;;;;;;;;5034878;28;20025;-80
2023/06/11 12:10:26;;;;;;;4.65;3.88;;;;;;;;;;5035019;28;20044;-80
2023/06/11 12:12:53;;;;;;;8.48;4.32;;;;;;;;;;5034794;28;20028;-79
2023/06/11 12:15:18;;;;;;;6.72;4.03;;;;;;;;;;5050291;28;20033;-79
2023/06/11 12:17:44;;;;;;;5.00;4.20;;;;;;;;;;5050046;28;20029;-81
2023/06/11 12:20:11;;;;;;;5.35;4.28;;;;;;;;;;5034418;28;20033;-81
2023/06/11 12:22:36;;;;;;;4.82;4.32;;;;;;;;;;5017177;28;20075;-80
2023/06/11 12:25:01;;;;;;;5.82;4.43;;;;;;;;;;5050366;28;20021;-80
2023/06/11 12:27:27;;;;;;;5.85;4.25;;;;;;;;;;5033758;28;20520;-80
2023/06/11 12:29:53;;;;;;;6.45;4.30;;;;;;;;;;5034606;28;20366;-80
2023/06/11 12:32:22;;;;;;;5.97;3.83;;;;;;;;;;5034948;28;20037;-80
2023/06/11 12:34:49;;;;;;;6.32;3.83;;;;;;;;;;5049675;28;20067;-80
2023/06/11 12:37:14;;;;;;;6.15;4.70;;;;;;;;;;5033269;28;20080;-81
2023/06/11 12:39:43;;;;;;;8.52;4.10;;;;;;;;;;5034382;28;20029;-81
2023/06/11 12:42:13;;;;;;;4.57;4.13;;;;;;;;;;5034424;28;20033;-80
2023/06/11 12:44:38;;;;;;;5.53;4.28;;;;;;;;;;5034692;28;20029;-80
2023/06/11 12:47:04;;;;;;;5.53;4.38;;;;;;;;;;5034438;28;20036;-81
2023/06/11 12:49:31;;;;;;;4.28;3.88;;;;;;;;;;5033981;28;20041;-82
2023/06/11 12:51:57;;;;;;;10.20;4.30;;;;;;;;;;5033473;28;20051;-82
2023/06/11 12:54:24;;;;;;;7.30;4.70;;;;;;;;;;5034827;28;20108;-81
2023/06/11 12:56:49;;;;;;;5.38;3.97;;;;;;;;;;5049458;28;20030;-81
2023/06/11 12:59:17;;;;;;;4.85;4.32;;;;;;;;;;5034290;28;20041;-81
2023/06/11 13:01:42;;;;;;;6.97;4.55;;;;;;;;;;5032601;28;20045;-80
2023/06/11 13:04:08;;;;;;;7.28;4.55;;;;;;;;;;5016655;28;20459;-80
2023/06/11 13:06:33;;;;;;;6.47;4.35;;;;;;;;;;5033874;28;20075;-81
2023/06/11 13:08:59;;;;;;;6.38;4.30;;;;;;;;;;5034025;28;20017;-82
2023/06/11 13:11:26;;;;;;;6.60;4.47;;;;;;;;;;5016220;28;20025;-81
2023/06/11 13:13:52;;;;;;;5.93;4.65;;;;;;;;;;5033865;28;20391;-80
2023/06/11 13:16:17;;;;;;;5.28;4.38;;;;;;;;;;5016207;28;20025;-79
2023/06/11 13:18:42;;;;;;;5.72;4.50;;;;;;;;;;5033792;28;20124;-80
2023/06/11 13:21:08;;;;;;;5.90;4.07;;;;;;;;;;5033781;28;20074;-80
2023/06/11 13:23:33;;;;;;;6.60;4.72;;;;;;;;;;5016407;28;20025;-80
2023/06/11 13:26:00;;;;;;;7.47;4.38;;;;;;;;;;5034270;28;20036;-81
2023/06/11 13:28:26;;;;;;;6.55;4.55;;;;;;;;;;5000061;28;20446;-82
2023/06/11 13:30:53;;;;;;;5.95;4.40;;;;;;;;;;5016741;28;20033;-81
2023/06/11 13:33:18;;;;;;;7.53;4.72;;;;;;;;;;5033579;28;20029;-80
2023/06/11 13:35:44;;;;;;;7.13;4.10;;;;;;;;;;4999661;28;20403;-81
2023/06/11 13:38:09;;;;;;;10.77;4.43;;;;;;;;;;5016209;28;20087;-82
2023/06/11 13:40:35;;;;;;;5.72;4.40;;;;;;;;;;5033473;28;20041;-81
2023/06/11 13:43:00;;;;;;;6.05;4.40;;;;;;;;;;5016052;28;20030;-81
2023/06/11 13:45:26;;;;;;;10.95;4.88;;;;;;;;;;5033235;28;20025;-80
2023/06/11 13:47:51;;;;;;;5.30;4.50;;;;;;;;;;5015735;28;20132;-80
2023/06/11 13:50:17;;;;;;;5.57;4.43;;;;;;;;;;4999493;28;20064;-81
2023/06/11 13:52:42;;;;;;;8.20;4.88;;;;;;;;;;4999518;28;20034;-81
2023/06/11 13:55:09;;;;;;;6.30;4.10;;;;;;;;;;5033505;28;20044;-82
2023/06/11 13:57:35;;;;;;;6.85;4.60;;;;;;;;;;5033585;28;20025;-81
2023/06/11 14:00:00;;;;;;;5.60;4.50;;;;;;;;;;5050085;28;20034;-82
2023/06/11 14:02:26;;;;;;;4.93;4.43;;;;;;;;;;5019737;28;20348;-81
2023/06/11 14:04:53;;;;;;;6.13;4.60;;;;;;;;;;5035279;28;20106;-81
2023/06/11 14:07:18;;;;;;;6.47;4.95;;;;;;;;;;5037341;28;20451;-81
2023/06/11 14:09:44;;;;;;;6.22;4.60;;;;;;;;;;5019493;28;20087;-81
2023/06/11 14:12:09;;;;;;;4.75;4.28;;;;;;;;;;5037291;28;20103;-82
2023/06/11 14:14:35;;;;;;;7.90;4.38;;;;;;;;;;5037013;28;20034;-81
2023/06/11 14:17:01;;;;;;;7.13;4.72;;;;;;;;;;5019453;28;20435;-81
2023/06/11 14:19:27;;;;;;;5.90;4.35;;;;;;;;;;5003077;28;20048;-81
2023/06/11 14:21:53;;;;;;;5.43;4.63;;;;;;;;;;5019651;28;20029;-80
2023/06/11 14:24:18;;;;;;;7.32;4.50;;;;;;;;;;5019332;28;20079;-81
2023/06/11 14:26:45;;;;;;;7.32;4.80;;;;;;;;;;5037124;28;20085;-81
2023/06/11 14:29:10;;;;;;;7.10;4.88;;;;;;;;;;5019282;28;20433;-82